DUZEAR1 KFLO-KMEB
Flight info
| Callsign | DUZEAR1 |
|---|---|
| Flight time | 0h 27m |
| Altitude | 9000 |
| Route | KFLO/19 N0256F090 DCT FLRNS DCT OYULY DCT JEDBA DCT TROCK DCT ROWEL DCT ZITMO DCT KMEB/23 |
| Aircraft | PC12/L-SDE2FGIRWY/SB1 |
Departure
| Time | 2026-05-06 18:42 |
|---|---|
| Airport | Florence Regional Airport (KFLO) |
Arrival
| Time | 2026-05-06 19:09 |
|---|---|
| Airport | Laurinburg Maxton Airport (KMEB) |
| Time | Latitude | Longitude | Altitude | Speed | Heading |
|---|---|---|---|---|---|
| 2026-05-06 18:25 | 34.19325 | -79.73170 | 152 ft | 0 kts | 90° |
| 2026-05-06 18:25 | 34.19325 | -79.73171 | 152 ft | 0 kts | 90° |
| 2026-05-06 18:40 | 34.19322 | -79.73164 | 152 ft | 7 kts | 127° |
| 2026-05-06 18:40 | 34.19276 | -79.73183 | 152 ft | 11 kts | 227° |
| 2026-05-06 18:40 | 34.19172 | -79.73198 | 152 ft | 15 kts | 179° |
| 2026-05-06 18:40 | 34.19101 | -79.73078 | 152 ft | 27 kts | 105° |
| 2026-05-06 18:41 | 34.19056 | -79.72898 | 152 ft | 27 kts | 105° |
| 2026-05-06 18:41 | 34.19014 | -79.72724 | 152 ft | 25 kts | 109° |
| 2026-05-06 18:41 | 34.18968 | -79.72538 | 152 ft | 17 kts | 106° |
| 2026-05-06 18:41 | 34.18910 | -79.72441 | 152 ft | 13 kts | 180° |
| 2026-05-06 18:42 | 34.18630 | -79.72449 | 152 ft | 75 kts | 181° |
| 2026-05-06 18:42 | 34.17972 | -79.72422 | 386 ft | 115 kts | 165° |
| 2026-05-06 18:42 | 34.17402 | -79.71583 | 952 ft | 154 kts | 104° |
| 2026-05-06 18:42 | 34.17738 | -79.70295 | 1583 ft | 179 kts | 42° |
| 2026-05-06 18:43 | 34.18856 | -79.69584 | 2278 ft | 186 kts | 23° |
| 2026-05-06 18:43 | 34.20083 | -79.68876 | 2906 ft | 194 kts | 22° |
| 2026-05-06 18:43 | 34.21148 | -79.68046 | 4013 ft | 173 kts | 38° |
| 2026-05-06 18:43 | 34.21999 | -79.67103 | 5004 ft | 164 kts | 38° |
| 2026-05-06 18:44 | 34.22878 | -79.66157 | 5834 ft | 171 kts | 37° |
| 2026-05-06 18:44 | 34.23767 | -79.65205 | 6771 ft | 171 kts | 37° |
| 2026-05-06 18:44 | 34.24658 | -79.64232 | 7556 ft | 174 kts | 36° |
| 2026-05-06 18:44 | 34.25567 | -79.63242 | 8305 ft | 178 kts | 34° |
| 2026-05-06 18:45 | 34.26532 | -79.62199 | 8860 ft | 191 kts | 34° |
| 2026-05-06 18:45 | 34.27550 | -79.61092 | 9061 ft | 215 kts | 34° |
| 2026-05-06 18:45 | 34.28764 | -79.59790 | 9071 ft | 248 kts | 36° |
| 2026-05-06 18:45 | 34.30081 | -79.58340 | 9066 ft | 262 kts | 37° |
| 2026-05-06 18:46 | 34.31443 | -79.56838 | 9059 ft | 267 kts | 36° |
| 2026-05-06 18:46 | 34.32829 | -79.55329 | 9022 ft | 270 kts | 36° |
| 2026-05-06 18:46 | 34.34225 | -79.53810 | 9012 ft | 270 kts | 37° |
| 2026-05-06 18:46 | 34.35616 | -79.52289 | 9002 ft | 269 kts | 37° |
| 2026-05-06 18:47 | 34.36964 | -79.50793 | 9000 ft | 269 kts | 37° |
| 2026-05-06 18:47 | 34.38330 | -79.49237 | 9000 ft | 270 kts | 38° |
| 2026-05-06 18:47 | 34.39700 | -79.47680 | 9004 ft | 270 kts | 37° |
| 2026-05-06 18:47 | 34.41085 | -79.46129 | 9001 ft | 270 kts | 36° |
| 2026-05-06 18:48 | 34.42586 | -79.44814 | 8996 ft | 267 kts | 28° |
| 2026-05-06 18:48 | 34.44113 | -79.43542 | 8994 ft | 266 kts | 28° |
| 2026-05-06 18:48 | 34.45629 | -79.42260 | 8998 ft | 266 kts | 28° |
| 2026-05-06 18:48 | 34.47140 | -79.40979 | 8998 ft | 265 kts | 28° |
| 2026-05-06 18:49 | 34.48622 | -79.39636 | 9001 ft | 268 kts | 34° |
| 2026-05-06 18:49 | 34.50038 | -79.38153 | 9000 ft | 270 kts | 35° |
| 2026-05-06 18:49 | 34.51464 | -79.36664 | 8997 ft | 270 kts | 35° |
| 2026-05-06 18:49 | 34.52890 | -79.35192 | 8994 ft | 269 kts | 34° |
| 2026-05-06 18:50 | 34.54312 | -79.33722 | 8994 ft | 269 kts | 34° |
| 2026-05-06 18:50 | 34.55725 | -79.32256 | 9002 ft | 269 kts | 35° |
| 2026-05-06 18:50 | 34.57148 | -79.30777 | 9001 ft | 270 kts | 34° |
| 2026-05-06 18:50 | 34.58574 | -79.29300 | 9000 ft | 270 kts | 35° |
| 2026-05-06 18:51 | 34.59515 | -79.28318 | 9005 ft | 269 kts | 35° |
| 2026-05-06 18:51 | 34.61414 | -79.26345 | 9008 ft | 269 kts | 34° |
| 2026-05-06 18:51 | 34.62835 | -79.24869 | 9003 ft | 269 kts | 34° |
| 2026-05-06 18:51 | 34.64257 | -79.23390 | 9008 ft | 269 kts | 35° |
| 2026-05-06 18:52 | 34.65621 | -79.21972 | 9000 ft | 270 kts | 35° |
| 2026-05-06 18:52 | 34.67054 | -79.20476 | 9004 ft | 270 kts | 35° |
| 2026-05-06 18:52 | 34.68476 | -79.18996 | 9008 ft | 269 kts | 35° |
| 2026-05-06 18:52 | 34.69954 | -79.17644 | 9000 ft | 263 kts | 24° |
| 2026-05-06 18:53 | 34.71573 | -79.16640 | 8999 ft | 262 kts | 20° |
| 2026-05-06 18:53 | 34.73192 | -79.15627 | 8998 ft | 261 kts | 20° |
| 2026-05-06 18:53 | 34.74682 | -79.14669 | 8979 ft | 226 kts | 20° |
| 2026-05-06 18:53 | 34.76028 | -79.13820 | 8985 ft | 215 kts | 18° |
| 2026-05-06 18:54 | 34.77360 | -79.13000 | 8981 ft | 212 kts | 18° |
| 2026-05-06 18:54 | 34.78666 | -79.12183 | 8984 ft | 211 kts | 19° |
| 2026-05-06 18:54 | 34.79887 | -79.11403 | 8979 ft | 190 kts | 18° |
| 2026-05-06 18:54 | 34.81071 | -79.10667 | 8984 ft | 189 kts | 17° |
| 2026-05-06 18:55 | 34.82243 | -79.09935 | 8978 ft | 190 kts | 17° |
| 2026-05-06 18:55 | 34.83390 | -79.09211 | 8970 ft | 178 kts | 17° |
| 2026-05-06 18:55 | 34.84497 | -79.08513 | 8858 ft | 176 kts | 17° |
| 2026-05-06 18:55 | 34.85581 | -79.07832 | 8672 ft | 179 kts | 17° |
| 2026-05-06 18:56 | 34.86663 | -79.07152 | 8462 ft | 177 kts | 17° |
| 2026-05-06 18:56 | 34.87745 | -79.06470 | 8240 ft | 174 kts | 18° |
| 2026-05-06 18:56 | 34.88824 | -79.05790 | 8004 ft | 172 kts | 18° |
| 2026-05-06 18:56 | 34.89899 | -79.05115 | 7794 ft | 175 kts | 18° |
| 2026-05-06 18:57 | 34.90962 | -79.04446 | 7588 ft | 172 kts | 19° |
| 2026-05-06 18:57 | 34.92030 | -79.03773 | 7351 ft | 173 kts | 19° |
| 2026-05-06 18:57 | 34.93105 | -79.03121 | 7136 ft | 171 kts | 13° |
| 2026-05-06 18:57 | 34.94227 | -79.02887 | 6913 ft | 159 kts | 349° |
| 2026-05-06 18:58 | 34.95286 | -79.03129 | 6709 ft | 152 kts | 330° |
| 2026-05-06 18:58 | 34.96179 | -79.03752 | 6507 ft | 144 kts | 313° |
| 2026-05-06 18:58 | 34.96835 | -79.04640 | 6307 ft | 139 kts | 297° |
| 2026-05-06 18:58 | 34.97221 | -79.05675 | 6127 ft | 135 kts | 281° |
| 2026-05-06 18:59 | 34.97347 | -79.06787 | 5952 ft | 131 kts | 269° |
| 2026-05-06 18:59 | 34.97386 | -79.07896 | 5776 ft | 131 kts | 270° |
| 2026-05-06 18:59 | 34.97433 | -79.08999 | 5605 ft | 130 kts | 270° |
| 2026-05-06 18:59 | 34.97474 | -79.10096 | 5432 ft | 129 kts | 268° |
| 2026-05-06 19:00 | 34.97319 | -79.11179 | 5258 ft | 130 kts | 251° |
| 2026-05-06 19:00 | 34.96885 | -79.12148 | 5082 ft | 131 kts | 236° |
| 2026-05-06 19:00 | 34.96342 | -79.13029 | 4889 ft | 129 kts | 236° |
| 2026-05-06 19:00 | 34.95991 | -79.13618 | 4782 ft | 128 kts | 236° |
| 2026-05-06 19:01 | 34.95292 | -79.14793 | 4548 ft | 132 kts | 236° |
| 2026-05-06 19:01 | 34.94755 | -79.15692 | 4381 ft | 129 kts | 235° |
| 2026-05-06 19:01 | 34.94231 | -79.16566 | 4202 ft | 128 kts | 235° |
| 2026-05-06 19:01 | 34.93695 | -79.17459 | 4039 ft | 131 kts | 234° |
| 2026-05-06 19:02 | 34.93171 | -79.18334 | 3857 ft | 127 kts | 234° |
| 2026-05-06 19:02 | 34.92633 | -79.19230 | 3703 ft | 134 kts | 233° |
| 2026-05-06 19:02 | 34.92109 | -79.20104 | 3531 ft | 127 kts | 233° |
| 2026-05-06 19:02 | 34.91581 | -79.20978 | 3379 ft | 128 kts | 232° |
| 2026-05-06 19:03 | 34.91050 | -79.21862 | 3227 ft | 133 kts | 232° |
| 2026-05-06 19:03 | 34.90536 | -79.22726 | 3024 ft | 121 kts | 232° |
| 2026-05-06 19:03 | 34.89953 | -79.23574 | 2876 ft | 133 kts | 225° |
| 2026-05-06 19:03 | 34.89386 | -79.24268 | 2684 ft | 102 kts | 223° |
| 2026-05-06 19:04 | 34.88912 | -79.24864 | 2550 ft | 97 kts | 224° |
| 2026-05-06 19:04 | 34.88445 | -79.25444 | 2399 ft | 89 kts | 227° |
| 2026-05-06 19:04 | 34.87991 | -79.26008 | 2325 ft | 100 kts | 226° |
| 2026-05-06 19:04 | 34.87670 | -79.26418 | 2247 ft | 97 kts | 226° |
| 2026-05-06 19:05 | 34.87090 | -79.27147 | 2081 ft | 97 kts | 225° |
| 2026-05-06 19:05 | 34.86760 | -79.27555 | 2006 ft | 101 kts | 225° |
| 2026-05-06 19:05 | 34.86291 | -79.28138 | 1874 ft | 91 kts | 228° |
| 2026-05-06 19:05 | 34.85876 | -79.28657 | 1752 ft | 83 kts | 227° |
| 2026-05-06 19:06 | 34.85471 | -79.29159 | 1649 ft | 82 kts | 224° |
| 2026-05-06 19:06 | 34.85071 | -79.29664 | 1550 ft | 82 kts | 224° |
| 2026-05-06 19:06 | 34.84674 | -79.30161 | 1413 ft | 79 kts | 226° |
| 2026-05-06 19:06 | 34.84274 | -79.30655 | 1330 ft | 86 kts | 225° |
| 2026-05-06 19:07 | 34.83843 | -79.31199 | 1215 ft | 89 kts | 226° |
| 2026-05-06 19:07 | 34.83427 | -79.31719 | 1087 ft | 82 kts | 223° |
| 2026-05-06 19:07 | 34.83032 | -79.32217 | 989 ft | 82 kts | 228° |
| 2026-05-06 19:07 | 34.82618 | -79.32729 | 861 ft | 88 kts | 226° |
| 2026-05-06 19:08 | 34.82187 | -79.33264 | 757 ft | 90 kts | 228° |
| 2026-05-06 19:08 | 34.81750 | -79.33804 | 647 ft | 89 kts | 230° |
| 2026-05-06 19:08 | 34.81325 | -79.34338 | 520 ft | 84 kts | 227° |
| 2026-05-06 19:08 | 34.80929 | -79.34829 | 426 ft | 82 kts | 227° |
| 2026-05-06 19:09 | 34.80545 | -79.35316 | 323 ft | 78 kts | 226° |
| 2026-05-06 19:09 | 34.80167 | -79.35788 | 223 ft | 72 kts | 226° |
| 2026-05-06 19:09 | 34.79880 | -79.36145 | 218 ft | 40 kts | 225° |
| 2026-05-06 19:09 | 34.79711 | -79.36356 | 221 ft | 18 kts | 226° |
| 2026-05-06 19:10 | 34.79698 | -79.36461 | 219 ft | 16 kts | 316° |
| 2026-05-06 19:10 | 34.79746 | -79.36544 | 220 ft | 15 kts | 258° |
| 2026-05-06 19:10 | 34.79670 | -79.36646 | 217 ft | 11 kts | 225° |
| 2026-05-06 19:10 | 34.79594 | -79.36740 | 217 ft | 14 kts | 225° |
| 2026-05-06 19:11 | 34.79583 | -79.36830 | 219 ft | 6 kts | 356° |
| 2026-05-06 19:11 | 34.79618 | -79.36800 | 220 ft | 0 kts | 46° |